Time;durP1;ratioP1;P1;durP2;ratioP2;P2;SDS_P1;SDS_P2;PMS_P1;PMS_P2;Temp;Humidity;BMP_temperature;BMP_pressure;BME280_temperature;BME280_humidity;BME280_pressure;Samples;Min_cycle;Max_cycle;Signal;HPM_P1;HPM_P2
2021/04/15 00:00:42;;;;;;;5.97;2.20;;;2.80;84.30;;;;;;4907353;29;20036;-91
2021/04/15 00:03:15;;;;;;;4.03;1.80;;;2.80;84.50;;;;;;4921367;29;20569;-90
2021/04/15 00:05:41;;;;;;;4.22;1.80;;;2.80;84.80;;;;;;4932110;29;20453;-91
2021/04/15 00:08:07;;;;;;;3.30;1.70;;;2.80;85.10;;;;;;4913775;29;20053;-91
2021/04/15 00:10:36;;;;;;;5.30;1.63;;;2.80;85.30;;;;;;4914327;29;20055;-91
2021/04/15 00:13:05;;;;;;;3.53;1.85;;;2.80;85.60;;;;;;4900385;29;20083;-90
2021/04/15 00:15:30;;;;;;;4.60;1.88;;;2.80;85.80;;;;;;4900617;29;20032;-92
2021/04/15 00:17:56;;;;;;;6.53;1.92;;;2.80;86.00;;;;;;4900303;29;20035;-90
2021/04/15 00:20:22;;;;;;;6.07;1.63;;;2.70;86.20;;;;;;4901037;29;20028;-92
2021/04/15 00:22:48;;;;;;;5.72;2.40;;;2.70;86.40;;;;;;4903436;29;20059;-92
2021/04/15 00:25:14;;;;;;;4.38;1.95;;;2.70;86.60;;;;;;4920984;29;20027;-92
2021/04/15 00:27:40;;;;;;;7.18;1.85;;;2.60;86.70;;;;;;4920858;29;20024;-92
2021/04/15 00:30:08;;;;;;;8.70;3.80;;;2.50;86.90;;;;;;4926986;29;20063;-92
2021/04/15 00:32:33;;;;;;;7.63;3.58;;;2.40;87.10;;;;;;4954677;29;20027;-91
2021/04/15 00:34:59;;;;;;;7.93;3.30;;;2.30;87.40;;;;;;4939022;29;20119;-93
2021/04/15 00:37:25;;;;;;;7.35;3.08;;;2.20;87.80;;;;;;4941204;29;20071;-92
2021/04/15 00:39:50;;;;;;;4.75;2.50;;;2.10;88.20;;;;;;4927809;29;20054;-91
2021/04/15 00:42:16;;;;;;;8.65;2.95;;;2.00;88.50;;;;;;4925362;29;20031;-91
2021/04/15 00:44:41;;;;;;;8.05;3.45;;;2.00;89.20;;;;;;4921797;29;20055;-91
2021/04/15 00:47:23;;;;;;;5.65;2.65;;;2.00;89.70;;;;;;4921787;29;20032;-91
2021/04/15 00:50:00;;;;;;;6.93;2.58;;;2.10;89.90;;;;;;4921167;29;20035;-91
2021/04/15 00:52:32;;;;;;;6.72;2.30;;;2.00;89.90;;;;;;4920085;29;20028;-91
2021/04/15 00:55:02;;;;;;;4.10;2.38;;;2.00;90.00;;;;;;4919725;29;20028;-92
2021/04/15 00:57:30;;;;;;;4.87;2.60;;;2.00;90.10;;;;;;4936138;29;20078;-91
2021/04/15 00:59:57;;;;;;;4.38;2.28;;;2.00;90.20;;;;;;4919364;29;20373;-90
2021/04/15 01:02:25;;;;;;;6.53;2.42;;;2.00;90.30;;;;;;4918985;29;20050;-91
2021/04/15 01:04:53;;;;;;;4.57;2.95;;;1.90;90.30;;;;;;4919105;29;20035;-90
2021/04/15 01:07:19;;;;;;;7.18;3.13;;;1.80;90.40;;;;;;4919814;29;20036;-91
2021/04/15 01:09:47;;;;;;;6.97;3.03;;;1.80;90.50;;;;;;4920175;29;20032;-91
2021/04/15 01:12:23;;;;;;;9.32;2.90;;;1.70;90.60;;;;;;4921137;29;20051;-91
2021/04/15 01:15:13;;;;;;;7.85;3.20;;;1.60;90.80;;;;;;4923422;29;20035;-91
2021/04/15 01:17:55;;;;;;;6.07;2.50;;;1.60;91.00;;;;;;4928652;29;20020;-91
2021/04/15 01:21:06;;;;;;;6.63;2.75;;;1.50;91.20;;;;;;4920306;29;20043;-90
2021/04/15 01:23:34;;;;;;;5.15;2.65;;;1.50;91.30;;;;;;4823437;29;20046;-91
2021/04/15 01:26:23;;;;;;;6.75;2.95;;;1.50;91.40;;;;;;4838279;29;20041;-91
2021/04/15 01:28:57;;;;;;;6.28;2.38;;;1.40;91.50;;;;;;4838203;29;20037;-92
2021/04/15 01:31:41;;;;;;;7.22;3.55;;;1.40;91.60;;;;;;4823230;29;20448;-92
2021/04/15 01:34:36;;;;;;;5.57;2.60;;;1.40;91.70;;;;;;4838397;29;20484;-92
2021/04/15 01:37:09;;;;;;;9.02;2.63;;;1.40;91.80;;;;;;4837829;29;20133;-90
2021/04/15 01:39:59;;;;;;;6.40;3.10;;;1.40;91.90;;;;;;4823210;29;20038;-91
2021/04/15 01:42:33;;;;;;;7.65;2.55;;;1.40;92.00;;;;;;4838934;29;20044;-90
2021/04/15 01:45:04;;;;;;;7.65;3.15;;;1.30;92.00;;;;;;4823290;29;20045;-91
2021/04/15 01:48:07;;;;;;;8.23;2.90;;;1.30;92.10;;;;;;4823773;29;20034;-90
2021/04/15 01:50:45;;;;;;;5.63;2.70;;;1.30;92.30;;;;;;4811066;29;20042;-91
2021/04/15 01:53:23;;;;;;;6.57;2.95;;;1.30;92.30;;;;;;4838903;29;20101;-92
2021/04/15 01:55:53;;;;;;;6.22;2.53;;;1.20;92.40;;;;;;4825472;29;20117;-92
2021/04/15 01:58:23;;;;;;;7.22;2.20;;;1.20;92.40;;;;;;4850964;29;20032;-90
2021/04/15 02:00:56;;;;;;;4.35;2.40;;;1.20;92.50;;;;;;4921168;29;20031;-91
2021/04/15 02:03:34;;;;;;;5.07;2.90;;;1.10;92.60;;;;;;4920691;29;20039;-91
2021/04/15 02:06:04;;;;;;;6.45;2.72;;;1.10;92.70;;;;;;4921316;29;20598;-90
2021/04/15 02:08:40;;;;;;;5.57;2.72;;;1.00;92.80;;;;;;4938471;29;20031;-88
2021/04/15 02:11:38;;;;;;;5.55;2.58;;;1.00;92.90;;;;;;4922050;29;20032;-92
2021/04/15 02:14:03;;;;;;;6.50;3.08;;;0.90;93.10;;;;;;4921589;29;20046;-90
2021/04/15 02:16:33;;;;;;;8.52;3.08;;;0.90;93.20;;;;;;4920550;29;20489;-90
2021/04/15 02:19:07;;;;;;;4.78;2.53;;;0.80;93.30;;;;;;4920939;29;20031;-90
2021/04/15 02:21:41;;;;;;;5.50;2.38;;;0.80;93.80;;;;;;4920860;29;20079;-90
2021/04/15 02:24:24;;;;;;;9.15;3.20;;;0.80;93.60;;;;;;4921698;29;20039;-90
2021/04/15 02:26:56;;;;;;;7.93;2.78;;;0.80;93.70;;;;;;4921542;29;20034;-91
2021/04/15 02:29:24;;;;;;;6.75;2.47;;;0.70;93.80;;;;;;4921613;29;20512;-90
2021/04/15 02:31:53;;;;;;;5.68;2.40;;;0.70;93.90;;;;;;4938468;29;20024;-90
2021/04/15 02:34:30;;;;;;;6.60;2.67;;;0.70;94.00;;;;;;4920889;29;20076;-90
2021/04/15 02:37:02;;;;;;;4.28;2.30;;;0.70;94.20;;;;;;4937128;29;20504;-91
2021/04/15 02:39:38;;;;;;;4.40;2.53;;;0.60;94.30;;;;;;4920051;29;20059;-91
2021/04/15 02:42:06;;;;;;;7.78;2.83;;;0.60;94.40;;;;;;4919345;29;20024;-91
2021/04/15 02:44:49;;;;;;;6.57;3.17;;;0.60;94.50;;;;;;4936586;29;20484;-89
2021/04/15 02:47:46;;;;;;;7.78;2.65;;;0.60;94.60;;;;;;4937157;29;20091;-91
2021/04/15 02:50:15;;;;;;;6.97;2.50;;;0.60;94.70;;;;;;4928235;29;20064;-91
2021/04/15 02:52:44;;;;;;;9.05;3.10;;;0.50;94.80;;;;;;4933292;29;20023;-90
2021/04/15 02:55:17;;;;;;;4.88;2.35;;;0.50;94.90;;;;;;4940370;29;20024;-89
2021/04/15 02:58:10;;;;;;;6.13;2.65;;;0.50;95.00;;;;;;4943592;29;20039;-90
2021/04/15 03:00:40;;;;;;;7.82;2.65;;;0.40;95.10;;;;;;4933521;29;20055;-91
2021/04/15 03:03:13;;;;;;;4.25;2.08;;;0.40;95.20;;;;;;4925263;29;20032;-89
2021/04/15 03:05:59;;;;;;;9.40;2.70;;;0.30;95.30;;;;;;4919493;29;20040;-89
2021/04/15 03:08:26;;;;;;;4.68;2.70;;;0.30;95.50;;;;;;4918992;29;20055;-90
2021/04/15 03:11:20;;;;;;;3.63;2.55;;;0.30;95.60;;;;;;4920289;29;20062;-91
2021/04/15 03:13:53;;;;;;;5.30;2.28;;;0.20;95.60;;;;;;4917275;29;20042;-90
2021/04/15 03:16:23;;;;;;;6.15;2.65;;;0.20;95.70;;;;;;4920341;29;20088;-89
2021/04/15 03:18:54;;;;;;;5.28;2.50;;;0.10;95.90;;;;;;4920739;29;20035;-91
2021/04/15 03:21:26;;;;;;;6.50;3.00;;;0.20;96.10;;;;;;4921860;29;20063;-89
2021/04/15 03:23:59;;;;;;;8.75;3.00;;;0.20;96.20;;;;;;4921357;29;20047;-89
2021/04/15 03:26:52;;;;;;;6.78;2.70;;;0.20;96.30;;;;;;4921649;29;20032;-89
2021/04/15 03:29:42;;;;;;;6.50;2.40;;;0.10;96.30;;;;;;4925519;29;20083;-89
2021/04/15 03:32:23;;;;;;;6.55;2.90;;;0.10;96.40;;;;;;4943541;29;20064;-89
2021/04/15 03:35:14;;;;;;;4.70;2.60;;;0.10;96.90;;;;;;4926566;29;20131;-90
2021/04/15 03:37:39;;;;;;;;;;;0.10;96.70;;;;;;4924142;29;20027;-89
2021/04/15 03:40:08;;;;;;;9.43;3.13;;;0.10;96.80;;;;;;4920048;29;20261;-90
2021/04/15 03:42:40;;;;;;;5.30;2.50;;;0.10;96.80;;;;;;4936574;29;20035;-89
2021/04/15 03:45:23;;;;;;;6.28;2.35;;;0.10;96.80;;;;;;4919547;29;20044;-90
2021/04/15 03:47:56;;;;;;;9.20;2.95;;;0.00;96.90;;;;;;4935719;29;20032;-89
2021/04/15 03:50:35;;;;;;;8.25;3.60;;;0.00;97.20;;;;;;4936245;29;20482;-90
2021/04/15 03:53:11;;;;;;;6.82;3.28;;;0.10;97.40;;;;;;4920434;29;20027;-90
2021/04/15 03:55:44;;;;;;;4.25;2.78;;;0.00;97.40;;;;;;4919689;29;20044;-89
2021/04/15 03:58:16;;;;;;;6.65;3.17;;;0.00;97.50;;;;;;4920122;29;20031;-91
2021/04/15 04:00:47;;;;;;;5.35;2.67;;;0.00;97.90;;;;;;4920766;29;20068;-90
2021/04/15 04:03:20;;;;;;;7.60;2.75;;;0.00;97.60;;;;;;4921300;29;20421;-90
2021/04/15 04:06:34;;;;;;;10.68;3.00;;;-0.10;97.70;;;;;;4938927;29;20042;-90
2021/04/15 04:09:15;;;;;;;7.80;3.42;;;-0.20;97.80;;;;;;4851969;29;20041;-89
2021/04/15 04:11:43;;;;;;;;;;;-0.20;98.00;;;;;;4832844;29;20049;-90
2021/04/15 04:14:16;;;;;;;7.00;3.10;;;-0.20;98.20;;;;;;4826211;29;19999;-89
2021/04/15 04:16:51;;;;;;;8.43;3.28;;;-0.30;98.10;;;;;;4826119;29;20488;-89
2021/04/15 04:19:42;;;;;;;5.35;2.92;;;-0.30;98.10;;;;;;4840860;29;20037;-90
2021/04/15 04:22:30;;;;;;;7.65;3.35;;;-0.30;98.30;;;;;;4827314;29;20026;-90
2021/04/15 04:25:26;;;;;;;8.73;3.72;;;-0.30;98.50;;;;;;4842811;29;20593;-89
2021/04/15 04:28:04;;;;;;;7.03;2.88;;;-0.30;98.60;;;;;;4831406;29;20619;-90
2021/04/15 04:30:34;;;;;;;5.38;2.70;;;-0.40;98.60;;;;;;4854205;29;20042;-89
2021/04/15 04:33:04;;;;;;;10.60;3.28;;;-0.40;98.60;;;;;;4846766;29;20099;-90
2021/04/15 04:35:33;;;;;;;6.15;3.10;;;-0.40;98.70;;;;;;4844505;29;20377;-89
2021/04/15 04:38:03;;;;;;;4.35;2.35;;;-0.40;98.80;;;;;;4832007;29;20030;-90
2021/04/15 04:40:39;;;;;;;10.53;3.53;;;-0.40;98.90;;;;;;4830077;29;20033;-89
2021/04/15 04:43:14;;;;;;;7.85;3.33;;;-0.50;99.10;;;;;;4895939;29;20047;-89
2021/04/15 04:45:40;;;;;;;5.57;2.90;;;-0.50;99.20;;;;;;4922057;29;20035;-89
2021/04/15 04:48:15;;;;;;;9.07;3.30;;;-0.50;99.30;;;;;;4921496;29;20028;-89
2021/04/15 04:51:10;;;;;;;6.72;3.53;;;-0.50;99.40;;;;;;4920882;29;20032;-90
2021/04/15 04:53:39;;;;;;;6.80;3.13;;;-0.50;99.50;;;;;;4920373;29;20028;-89
2021/04/15 04:56:25;;;;;;;7.22;3.08;;;-0.50;99.60;;;;;;4919917;29;20470;-89
2021/04/15 04:58:54;;;;;;;6.72;3.08;;;-0.60;99.80;;;;;;4920125;29;20036;-88
2021/04/15 05:01:20;;;;;;;6.45;2.90;;;-0.50;99.80;;;;;;4919688;29;20024;-88
2021/04/15 05:03:46;;;;;;;8.82;3.35;;;-0.50;99.80;;;;;;4919573;29;20043;-89
2021/04/15 05:06:31;;;;;;;6.18;3.00;;;-0.50;99.90;;;;;;4937468;29;20075;-89
2021/04/15 05:09:25;;;;;;;6.95;2.90;;;-0.60;99.90;;;;;;4937722;29;20027;-89
2021/04/15 05:11:52;;;;;;;5.03;2.97;;;-0.60;99.90;;;;;;4904635;29;20103;-90
2021/04/15 05:14:22;;;;;;;7.25;3.17;;;-0.70;99.90;;;;;;4921386;29;20035;-90
2021/04/15 05:16:53;;;;;;;6.70;2.90;;;-0.70;99.90;;;;;;4920473;29;20045;-88
2021/04/15 05:19:19;;;;;;;;;;;-0.70;99.90;;;;;;4920196;29;20032;-89
2021/04/15 05:21:47;;;;;;;7.50;3.25;;;-0.80;99.90;;;;;;4937156;29;19910;-89
2021/04/15 05:24:23;;;;;;;8.73;3.60;;;-0.80;99.90;;;;;;4935953;29;20051;-89
2021/04/15 05:26:50;;;;;;;11.90;3.63;;;-0.80;99.90;;;;;;4918806;29;20122;-89
2021/04/15 05:29:36;;;;;;;7.00;2.90;;;-0.80;99.90;;;;;;4935889;29;20036;-91
2021/04/15 05:32:01;;;;;;;5.32;2.97;;;-0.90;99.90;;;;;;4938196;29;20102;-90
2021/04/15 05:34:31;;;;;;;10.68;3.63;;;-0.90;99.90;;;;;;4922437;29;20616;-90
2021/04/15 05:39:30;;;;;;;7.97;3.25;;;-1.00;99.90;;;;;;4905947;29;20059;-90
2021/04/15 05:47:15;;;;;;;6.80;3.78;;;-1.10;99.90;;;;;;4887181;29;20075;-89
2021/04/15 05:49:55;;;;;;;7.53;3.42;;;-1.10;99.90;;;;;;4910070;29;20050;-89
2021/04/15 05:52:38;;;;;;;10.23;2.80;;;-1.10;99.90;;;;;;4922768;29;20032;-88
2021/04/15 05:55:13;;;;;;;9.27;3.92;;;-1.10;99.90;;;;;;4917429;29;20035;-88
2021/04/15 05:57:48;;;;;;;7.10;4.00;;;-1.10;99.90;;;;;;4918529;29;20111;-89
2021/04/15 06:00:28;;;;;;;5.05;3.20;;;-1.00;99.90;;;;;;4914691;29;20059;-91
2021/04/15 06:03:00;;;;;;;7.97;3.60;;;-1.00;99.90;;;;;;4921344;29;20035;-91
2021/04/15 06:05:30;;;;;;;15.60;3.70;;;-1.00;99.90;;;;;;4919400;29;20359;-91
2021/04/15 06:08:00;;;;;;;8.40;3.53;;;-1.00;99.90;;;;;;4922772;29;20075;-90
2021/04/15 06:10:29;;;;;;;6.90;3.22;;;-1.00;99.90;;;;;;4922472;29;20489;-90
2021/04/15 06:13:04;;;;;;;7.05;3.78;;;-1.00;99.90;;;;;;4939829;29;20466;-90
2021/04/15 06:15:58;;;;;;;7.70;3.97;;;-1.00;99.90;;;;;;4927837;29;20024;-90
2021/04/15 06:18:39;;;;;;;8.43;3.47;;;-1.00;99.90;;;;;;4914469;29;20127;-90
2021/04/15 06:21:19;;;;;;;6.55;3.50;;;-1.00;99.90;;;;;;4921261;29;20020;-88
2021/04/15 06:23:56;;;;;;;6.90;3.47;;;-0.90;99.90;;;;;;4919137;29;20034;-87
2021/04/15 06:26:29;;;;;;;11.30;3.47;;;-0.90;99.90;;;;;;4920566;29;20279;-91
2021/04/15 06:28:58;;;;;;;6.88;3.15;;;-0.90;99.90;;;;;;4937692;29;20028;-90
2021/04/15 06:31:27;;;;;;;9.65;3.17;;;-0.80;99.90;;;;;;4937364;29;20532;-89
2021/04/15 06:33:56;;;;;;;8.02;3.45;;;-0.80;99.90;;;;;;4938598;29;20024;-90
2021/04/15 06:36:37;;;;;;;6.82;3.30;;;-0.70;99.90;;;;;;4921828;29;20032;-90
2021/04/15 06:39:11;;;;;;;10.52;3.63;;;-0.70;99.90;;;;;;4939940;29;20050;-90
2021/04/15 06:42:05;;;;;;;6.35;3.58;;;-0.60;99.90;;;;;;4938942;29;20035;-91
2021/04/15 06:45:01;;;;;;;10.55;3.50;;;-0.50;99.90;;;;;;4922985;29;20531;-90
2021/04/15 06:47:44;;;;;;;9.23;3.50;;;-0.50;99.90;;;;;;4919770;29;20048;-90
2021/04/15 06:50:18;;;;;;;8.18;3.65;;;-0.50;99.90;;;;;;4920438;29;20060;-91
2021/04/15 06:52:53;;;;;;;8.07;3.65;;;-0.40;99.90;;;;;;4923392;29;20031;-90
2021/04/15 06:55:22;;;;;;;8.13;4.20;;;-0.30;99.90;;;;;;4920954;29;20071;-90
2021/04/15 06:58:06;;;;;;;8.95;3.90;;;-0.30;99.90;;;;;;4918758;29;20815;-91
2021/04/15 07:00:54;;;;;;;8.23;4.00;;;-0.30;99.90;;;;;;4920634;29;20027;-91
2021/04/15 07:03:56;;;;;;;11.63;4.55;;;-0.20;99.90;;;;;;4936910;29;20064;-90
2021/04/15 07:06:55;;;;;;;5.40;3.40;;;-0.10;99.90;;;;;;4922199;29;20024;-90
2021/04/15 07:09:49;;;;;;;6.38;3.90;;;-0.10;99.90;;;;;;4922234;29;20047;-91
2021/04/15 07:12:39;;;;;;;8.13;3.30;;;0.00;99.90;;;;;;4918141;29;20032;-92
2021/04/15 07:15:36;;;;;;;5.82;3.30;;;0.10;99.90;;;;;;4927249;29;20035;-92
2021/04/15 07:18:25;;;;;;;9.45;3.45;;;0.20;99.90;;;;;;4931025;29;20130;-92
2021/04/15 07:21:01;;;;;;;8.82;2.97;;;0.30;99.90;;;;;;4941476;29;20039;-91
2021/04/15 07:23:45;;;;;;;6.93;3.75;;;0.40;99.90;;;;;;4930886;29;20044;-91
2021/04/15 07:26:32;;;;;;;9.23;3.83;;;0.40;99.90;;;;;;4940778;29;20079;-91
2021/04/15 07:29:43;;;;;;;7.40;3.67;;;0.60;99.90;;;;;;4956281;29;20031;-90
2021/04/15 07:32:29;;;;;;;9.40;4.07;;;0.70;99.90;;;;;;4905230;29;20047;-91
2021/04/15 07:35:16;;;;;;;8.25;3.17;;;0.80;99.90;;;;;;4905323;29;20028;-90
2021/04/15 07:38:11;;;;;;;10.25;5.10;;;0.90;99.90;;;;;;4926962;29;20261;-91
2021/04/15 07:41:03;;;;;;;7.55;3.92;;;1.00;99.90;;;;;;4927346;29;20061;-91
2021/04/15 07:48:33;;;;;;;9.43;3.42;;;1.20;99.90;;;;;;4892766;29;20629;-91
2021/04/15 07:51:33;;;;;;;13.70;4.43;;;1.30;99.90;;;;;;4942061;29;20036;-92
2021/04/15 07:54:24;;;;;;;8.68;3.92;;;1.40;99.90;;;;;;4937119;29;20043;-91
2021/04/15 07:57:01;;;;;;;9.95;3.75;;;1.60;99.90;;;;;;4924053;29;20047;-92
2021/04/15 07:59:39;;;;;;;10.35;4.20;;;1.70;99.90;;;;;;4921939;29;20023;-89
2021/04/15 08:04:57;;;;;;;5.85;3.55;;;2.00;99.90;;;;;;4891057;29;20038;-90
2021/04/15 08:10:12;;;;;;;12.55;3.85;;;2.40;99.90;;;;;;4889042;29;20028;-89
2021/04/15 08:13:19;;;;;;;11.52;4.35;;;2.60;99.90;;;;;;4918493;29;20111;-88
2021/04/15 08:16:04;;;;;;;10.80;3.08;;;2.80;99.90;;;;;;4855315;29;20334;-91
2021/04/15 08:18:44;;;;;;;8.77;3.97;;;3.00;99.90;;;;;;4854916;29;20025;-90
2021/04/15 08:21:27;;;;;;;12.32;4.88;;;3.10;99.90;;;;;;4867231;29;20041;-89
2021/04/15 08:24:15;;;;;;;13.68;4.22;;;3.30;99.90;;;;;;4849503;29;20068;-93
2021/04/15 08:27:12;;;;;;;25.63;4.60;;;3.50;99.90;;;;;;4842483;29;20029;-95
2021/04/15 08:30:30;;;;;;;15.57;3.80;;;3.70;99.90;;;;;;4866256;29;20037;-95
2021/04/15 08:33:32;;;;;;;15.57;4.05;;;3.90;99.90;;;;;;4848288;29;20037;-94
2021/04/15 08:36:39;;;;;;;7.82;3.83;;;4.10;99.90;;;;;;4857581;29;20037;-95
2021/04/15 08:39:29;;;;;;;12.75;3.88;;;4.30;99.90;;;;;;4855885;29;20045;-96
2021/04/15 08:42:48;;;;;;;5.57;3.00;;;4.50;99.90;;;;;;4867515;29;20106;-95
2021/04/15 08:46:13;;;;;;;3.45;1.10;;;4.80;99.90;;;;;;4864024;29;20045;-95
2021/04/15 08:49:02;;;;;;;4.68;1.60;;;5.00;99.90;;;;;;4861095;29;20143;-95
2021/04/15 08:52:01;;;;;;;8.68;1.58;;;5.30;99.90;;;;;;4864309;29;20439;-94
2021/04/15 08:54:58;;;;;;;3.70;1.40;;;5.60;99.40;;;;;;4926884;29;20028;-95
2021/04/15 08:57:41;;;;;;;2.03;1.20;;;5.80;98.60;;;;;;4947872;29;20087;-95
2021/04/15 09:00:45;;;;;;;3.05;1.20;;;6.00;97.60;;;;;;4931021;29;20031;-95
2021/04/15 09:09:39;;;;;;;4.57;1.40;;;6.70;95.80;;;;;;5555856;23;20099;-93
2021/04/15 09:12:23;;;;;;;3.83;1.48;;;7.00;95.20;;;;;;4964523;29;20035;-95
2021/04/15 09:14:58;;;;;;;3.05;1.10;;;7.10;94.70;;;;;;4949355;29;20050;-96
2021/04/15 09:17:51;;;;;;;6.65;1.60;;;7.30;93.60;;;;;;4944057;29;20052;-95
2021/04/15 09:20:41;;;;;;;3.80;1.30;;;7.50;92.80;;;;;;4928403;29;20024;-96
2021/04/15 09:23:51;;;;;;;5.95;1.75;;;7.60;92.10;;;;;;4922633;29;20035;-95
2021/04/15 09:26:52;;;;;;;6.70;1.60;;;7.80;91.40;;;;;;4929119;29;20030;-96
2021/04/15 09:29:42;;;;;;;3.65;1.70;;;8.00;91.00;;;;;;4932935;29;20059;-96
2021/04/15 09:32:15;;;;;;;7.10;1.83;;;8.10;90.40;;;;;;4945767;29;20028;-94
2021/04/15 09:35:02;;;;;;;4.45;1.38;;;8.30;90.00;;;;;;4937567;29;20027;-95
2021/04/15 09:37:30;;;;;;;6.05;1.60;;;8.50;89.00;;;;;;4946776;29;20055;-95
2021/04/15 09:40:22;;;;;;;5.03;1.83;;;8.80;87.30;;;;;;4953341;29;20028;-94
2021/04/15 09:48:33;;;;;;;6.10;1.67;;;9.30;82.80;;;;;;4943705;29;20062;-93
2021/04/15 09:51:23;;;;;;;3.03;1.42;;;9.60;81.50;;;;;;4923020;29;20417;-95
2021/04/15 09:53:57;;;;;;;3.58;1.67;;;9.80;80.00;;;;;;4935531;29;20040;-93
2021/04/15 09:56:50;;;;;;;5.43;1.70;;;10.00;78.10;;;;;;4928074;29;20031;-95
2021/04/15 10:08:30;;;;;;;4.95;1.80;;;10.40;72.70;;;;;;4973349;23;20055;-94
2021/04/15 10:16:48;;;;;;;3.10;1.85;;;11.10;70.70;;;;;;5153174;23;20042;-96
2021/04/15 10:19:48;;;;;;;5.25;2.10;;;11.30;70.10;;;;;;4958032;29;20016;-96
2021/04/15 10:33:50;;;;;;;3.15;1.77;;;12.40;65.30;;;;;;5500366;23;20095;-95
2021/04/15 10:36:49;;;;;;;6.28;2.28;;;12.50;64.40;;;;;;5191961;23;20062;-95
2021/04/15 10:39:30;;;;;;;4.43;1.90;;;12.80;64.00;;;;;;4949286;29;20087;-94
2021/04/15 10:58:46;;;;;;;6.03;1.55;;;13.50;58.30;;;;;;5981574;23;20179;31
2021/04/15 11:01:23;;;;;;;1.92;1.30;;;13.50;57.70;;;;;;5311802;23;20119;-96
2021/04/15 11:12:15;;;;;;;3.50;1.30;;;13.80;56.30;;;;;;5555380;23;20051;-96
2021/04/15 11:23:33;;;;;;;3.55;1.27;;;13.80;54.60;;;;;;5387674;23;20087;-95
2021/04/15 11:26:21;;;;;;;2.88;1.38;;;14.00;54.60;;;;;;4954997;29;20020;-95
2021/04/15 11:28:48;;;;;;;5.93;1.40;;;14.50;54.50;;;;;;4929825;29;20031;-94
2021/04/15 11:31:21;;;;;;;3.60;1.30;;;14.80;53.80;;;;;;5319620;23;20064;-92
2021/04/15 11:33:50;;;;;;;7.03;1.27;;;14.70;53.30;;;;;;4917848;29;20028;-92
2021/04/15 11:36:22;;;;;;;3.75;1.20;;;14.80;53.10;;;;;;4921208;29;20040;-94
2021/04/15 11:38:50;;;;;;;3.92;1.30;;;15.00;52.80;;;;;;4922856;29;20024;-95
2021/04/15 11:41:29;;;;;;;6.95;1.20;;;15.30;52.20;;;;;;4922754;29;20064;-93
2021/04/15 11:44:36;;;;;;;7.57;1.55;;;15.60;51.70;;;;;;4921300;29;20043;-94
2021/04/15 11:47:22;;;;;;;5.25;1.55;;;15.90;51.80;;;;;;4934786;29;20020;-94
2021/04/15 11:49:49;;;;;;;3.50;1.40;;;16.30;51.20;;;;;;4924090;29;20023;-95
2021/04/15 11:52:23;;;;;;;3.67;1.30;;;16.50;50.70;;;;;;4946790;29;20034;-94
2021/04/15 11:54:52;;;;;;;3.67;1.35;;;16.80;50.10;;;;;;4928123;29;20027;-95
2021/04/15 11:57:34;;;;;;;3.50;1.25;;;17.00;49.80;;;;;;4930136;29;20020;-95
2021/04/15 12:00:00;;;;;;;4.80;1.48;;;17.00;49.20;;;;;;4923141;29;20028;-93
2021/04/15 12:02:46;;;;;;;7.75;1.45;;;17.20;49.20;;;;;;4923664;29;20042;-94
2021/04/15 12:05:29;;;;;;;4.07;1.13;;;17.10;48.30;;;;;;4924146;29;20036;-95
2021/04/15 12:08:03;;;;;;;4.40;1.80;;;17.00;48.10;;;;;;4937445;29;20043;-94
2021/04/15 12:10:35;;;;;;;2.42;1.67;;;17.20;48.20;;;;;;4920352;29;20091;-93
2021/04/15 12:13:10;;;;;;;3.05;1.48;;;17.20;47.90;;;;;;4933168;29;20020;-96
2021/04/15 12:15:41;;;;;;;3.80;1.20;;;17.10;47.90;;;;;;4925175;29;20086;-94
2021/04/15 12:18:19;;;;;;;1.92;1.33;;;17.20;48.00;;;;;;4922684;29;20035;-96
2021/04/15 12:21:06;;;;;;;3.53;1.20;;;17.30;48.10;;;;;;4920918;29;20024;-94
2021/04/15 12:24:01;;;;;;;2.50;1.02;;;17.20;47.40;;;;;;4949127;29;20107;-95
2021/04/15 12:26:50;;;;;;;2.05;1.00;;;17.10;47.40;;;;;;4942555;29;20016;-96
2021/04/15 12:29:29;;;;;;;2.97;1.10;;;17.10;47.00;;;;;;4950576;29;20023;-92
2021/04/15 12:32:17;;;;;;;3.60;1.20;;;16.90;46.50;;;;;;4941516;29;20040;-94
2021/04/15 12:35:14;;;;;;;5.55;1.17;;;16.90;46.80;;;;;;4931898;29;20044;-95
2021/04/15 12:37:44;;;;;;;2.28;1.10;;;17.00;46.70;;;;;;4918967;29;20063;-94
2021/04/15 12:40:41;;;;;;;3.55;1.00;;;16.80;46.80;;;;;;4923776;29;20036;-94
2021/04/15 12:43:59;;;;;;;2.92;0.88;;;16.70;46.50;;;;;;4941997;29;20095;-94
2021/04/15 12:47:10;;;;;;;5.32;1.30;;;16.70;46.70;;;;;;4938064;29;20046;-95
2021/04/15 12:53:32;;;;;;;;;;;;;;;;;;;;;
2021/04/15 12:56:33;;;;;;;2.90;1.30;;;16.30;48.00;;;;;;4861498;29;20070;-95
2021/04/15 12:59:42;;;;;;;1.80;1.23;;;16.30;48.60;;;;;;4842518;29;20026;-95
2021/04/15 13:02:33;;;;;;;8.32;2.20;;;16.30;48.60;;;;;;4855819;29;20033;-94
2021/04/15 13:05:06;;;;;;;4.00;1.23;;;16.10;48.90;;;;;;4848182;29;20061;-94
2021/04/15 13:07:44;;;;;;;2.40;1.30;;;15.90;49.10;;;;;;4860495;29;20041;-94
2021/04/15 13:11:21;;;;;;;1.73;0.93;;;15.90;49.00;;;;;;4846634;29;20042;-96
2021/04/15 13:14:11;;;;;;;3.58;0.95;;;15.80;48.70;;;;;;4808357;29;20043;-94
2021/04/15 13:17:33;;;;;;;2.65;0.98;;;16.20;48.40;;;;;;4850224;29;20045;-93
2021/04/15 13:20:14;;;;;;;;;;;;;;;;;;;;;
2021/04/15 13:23:10;;;;;;;4.28;1.50;;;17.40;46.30;;;;;;4849742;29;20069;-96
2021/04/15 13:26:15;;;;;;;3.42;1.10;;;17.90;45.50;;;;;;5432828;23;20046;-95
2021/04/15 13:28:42;;;;;;;2.40;1.02;;;18.00;45.40;;;;;;4928404;29;20040;-93
2021/04/15 13:31:12;;;;;;;5.18;1.38;;;18.00;45.60;;;;;;4901656;29;20020;-94
2021/04/15 13:34:09;;;;;;;5.63;1.90;;;17.70;45.80;;;;;;4898650;29;20193;-94
2021/04/15 13:36:55;;;;;;;3.03;1.30;;;17.50;46.10;;;;;;4917257;29;20041;-93
2021/04/15 13:39:37;;;;;;;4.57;1.20;;;17.10;46.50;;;;;;4897282;29;20053;-95
2021/04/15 13:42:32;;;;;;;1.33;0.90;;;16.60;46.90;;;;;;4898272;29;20056;-95
2021/04/15 13:45:05;;;;;;;1.27;1.08;;;16.20;47.10;;;;;;4896718;29;20115;-95
2021/04/15 13:47:50;;;;;;;3.17;1.05;;;16.20;47.00;;;;;;4896765;29;20121;-95
2021/04/15 13:50:40;;;;;;;1.70;1.10;;;16.30;46.60;;;;;;4901484;29;20036;-93
2021/04/15 13:53:55;;;;;;;1.77;1.20;;;16.60;46.30;;;;;;4904293;29;20049;-94
2021/04/15 13:56:35;;;;;;;2.53;1.55;;;16.90;45.70;;;;;;4896788;29;20585;-95
2021/04/15 13:59:02;;;;;;;3.33;1.00;;;17.20;45.40;;;;;;4900419;29;20036;-94
2021/04/15 14:01:42;;;;;;;2.53;1.45;;;17.10;45.90;;;;;;4900736;29;20033;-94
2021/04/15 14:04:29;;;;;;;3.80;1.42;;;17.00;46.20;;;;;;4883033;29;20473;-94
2021/04/15 14:07:46;;;;;;;4.45;1.20;;;17.20;46.20;;;;;;4936124;29;20031;-94
2021/04/15 14:10:56;;;;;;;5.70;1.20;;;17.30;46.00;;;;;;4933819;29;20131;-95
2021/04/15 14:13:25;;;;;;;3.38;1.00;;;17.00;45.70;;;;;;4912674;29;20028;-94
2021/04/15 14:24:19;;;;;;;3.85;2.25;;;17.30;46.50;;;;;;4956097;29;20051;-96
2021/04/15 14:26:53;;;;;;;3.60;1.55;;;17.80;46.10;;;;;;4932761;29;20028;-95
2021/04/15 14:34:48;;;;;;;8.73;4.25;;;18.50;44.60;;;;;;4944411;29;20052;-94
2021/04/15 14:39:56;;;;;;;4.45;1.38;;;18.40;44.00;;;;;;4985817;23;20056;-95
2021/04/15 14:42:27;;;;;;;21.48;1.77;;;18.30;43.60;;;;;;4922421;29;20025;-94
2021/04/15 14:45:43;;;;;;;1.88;1.10;;;18.30;43.50;;;;;;4916023;29;20150;-94
2021/04/15 14:48:42;;;;;;;3.45;1.20;;;18.40;43.60;;;;;;4865303;29;20082;-94
2021/04/15 14:51:18;;;;;;;4.65;2.30;;;18.50;43.90;;;;;;4858072;29;20085;-93
2021/04/15 14:53:48;;;;;;;6.40;1.70;;;18.70;43.80;;;;;;4849537;29;20056;-94
2021/04/15 14:56:42;;;;;;;2.83;1.48;;;18.60;43.40;;;;;;4868403;29;20128;-94
2021/04/15 14:59:21;;;;;;;10.50;5.55;;;18.50;43.90;;;;;;4857977;29;20476;-95
2021/04/15 15:02:06;;;;;;;1.88;1.40;;;18.30;44.10;;;;;;4863893;29;20041;-95
2021/04/15 15:05:17;;;;;;;5.60;1.45;;;17.90;44.10;;;;;;4874053;29;20443;-95
2021/04/15 15:07:46;;;;;;;4.25;1.95;;;17.30;44.30;;;;;;4864903;29;20032;-94
2021/04/15 15:10:17;;;;;;;5.85;1.88;;;16.80;44.70;;;;;;4852962;29;20030;-95
2021/04/15 15:12:45;;;;;;;3.75;1.95;;;16.50;44.90;;;;;;4858193;29;20038;-94
2021/04/15 15:15:30;;;;;;;6.90;4.18;;;16.20;45.10;;;;;;4859791;29;20030;-94
2021/04/15 15:18:06;;;;;;;5.07;2.45;;;16.10;45.10;;;;;;4853251;29;20038;-96
2021/04/15 15:20:47;;;;;;;2.70;1.48;;;15.80;45.40;;;;;;4850338;29;20146;-96
2021/04/15 15:23:18;;;;;;;6.38;3.03;;;15.70;45.60;;;;;;4907201;29;20044;-95
2021/04/15 15:25:49;;;;;;;4.10;1.95;;;15.70;45.70;;;;;;4908702;29;20470;-95
2021/04/15 15:28:29;;;;;;;6.90;1.95;;;15.70;45.80;;;;;;4885018;29;20491;-94
2021/04/15 15:31:17;;;;;;;3.63;1.50;;;15.90;45.80;;;;;;4897229;29;20139;-94
2021/04/15 15:33:45;;;;;;;3.55;1.50;;;16.20;45.90;;;;;;4886012;29;20035;-95
2021/04/15 15:36:17;;;;;;;2.72;1.40;;;16.80;45.70;;;;;;4915754;29;20035;-96
2021/04/15 15:39:08;;;;;;;3.67;1.63;;;17.10;45.00;;;;;;4927503;29;20044;-95
2021/04/15 15:41:50;;;;;;;1.92;1.33;;;17.60;44.30;;;;;;4924221;29;20036;-95
2021/04/15 15:44:34;;;;;;;7.05;1.40;;;17.90;44.00;;;;;;4914268;29;20028;-95
2021/04/15 15:47:04;;;;;;;5.03;1.60;;;18.00;44.20;;;;;;4919464;29;20035;-94
2021/04/15 15:49:36;;;;;;;5.25;1.60;;;17.80;44.00;;;;;;4892592;29;20024;-94
2021/04/15 15:52:34;;;;;;;1.90;1.60;;;17.30;44.60;;;;;;4903442;29;20060;-94